createdAt,value
2019-05-18T00:03:58.993Z,13.12
2019-05-18T00:09:06.224Z,13.23
2019-05-18T00:14:12.024Z,13.17
2019-05-18T00:19:18.431Z,13.10
2019-05-18T00:24:24.047Z,13.25
2019-05-18T00:29:29.725Z,13.29
2019-05-18T00:34:35.417Z,13.33
2019-05-18T00:39:41.161Z,13.39
2019-05-18T00:44:46.861Z,13.37
2019-05-18T00:49:52.549Z,13.33
2019-05-18T00:54:58.227Z,13.42
2019-05-18T01:00:07.905Z,13.18
2019-05-18T01:05:14.377Z,13.35
2019-05-18T01:10:20.330Z,13.34
2019-05-18T01:15:25.971Z,13.47
2019-05-18T01:20:31.564Z,13.53
2019-05-18T01:25:37.176Z,13.48
2019-05-18T01:30:43.057Z,13.30
2019-05-18T01:35:48.797Z,13.22
2019-05-18T01:40:54.498Z,13.34
2019-05-18T01:46:00.118Z,13.37
2019-05-18T01:51:06.815Z,13.35
2019-05-18T01:56:12.571Z,13.36
2019-05-18T02:01:18.255Z,13.39
2019-05-18T02:06:23.945Z,13.52
2019-05-18T02:11:29.638Z,13.47
2019-05-18T02:16:35.679Z,13.41
2019-05-18T02:21:41.405Z,13.42
2019-05-18T02:26:47.099Z,13.22
2019-05-18T02:31:52.762Z,13.36
2019-05-18T02:36:58.466Z,13.34
2019-05-18T02:42:04.185Z,13.27
2019-05-18T02:47:09.903Z,13.42
2019-05-18T02:52:15.644Z,13.47
2019-05-18T02:57:21.302Z,13.39
2019-05-18T03:02:27.074Z,13.49
2019-05-18T03:07:32.808Z,13.45
2019-05-18T03:12:38.611Z,13.32
2019-05-18T03:17:44.401Z,13.45
2019-05-18T03:22:50.057Z,13.31
2019-05-18T03:27:55.878Z,13.32
2019-05-18T03:33:01.465Z,13.29
2019-05-18T03:38:07.250Z,13.32
2019-05-18T03:43:12.875Z,13.43
2019-05-18T03:48:18.625Z,13.62
2019-05-18T03:53:24.315Z,13.54
2019-05-18T03:58:30.091Z,13.72
2019-05-18T04:03:36.254Z,13.59
2019-05-18T04:08:41.971Z,13.65
2019-05-18T04:13:47.560Z,13.74
2019-05-18T04:18:53.242Z,13.82
2019-05-18T04:23:58.903Z,14.08
2019-05-18T04:29:04.924Z,14.21
2019-05-18T04:34:10.603Z,14.53
2019-05-18T04:39:16.290Z,14.73
2019-05-18T04:44:22.786Z,14.89
2019-05-18T04:49:28.458Z,15.10
2019-05-18T04:54:34.202Z,15.25
2019-05-18T04:59:39.875Z,15.56
2019-05-18T05:04:46.466Z,15.73
2019-05-18T05:09:52.158Z,16.19
2019-05-18T05:14:57.900Z,16.19
2019-05-18T05:20:18.801Z,16.07
2019-05-18T05:25:12.536Z,16.03
2019-05-18T05:30:18.137Z,16.03
2019-05-18T05:35:23.827Z,16.23
2019-05-18T05:40:29.520Z,16.15
2019-05-18T05:45:36.678Z,16.66
2019-05-18T05:50:43.921Z,16.42
2019-05-18T05:55:50.250Z,16.45
2019-05-18T06:01:00.506Z,16.91
2019-05-18T06:06:08.413Z,17.04
2019-05-18T06:11:14.124Z,17.23
2019-05-18T06:16:19.928Z,17.46
2019-05-18T06:21:25.667Z,17.17
2019-05-18T06:26:31.275Z,17.29
2019-05-18T06:31:36.929Z,17.34
2019-05-18T06:36:42.553Z,17.60
2019-05-18T06:41:48.292Z,18.22
2019-05-18T06:46:53.946Z,18.49
2019-05-18T06:52:00.217Z,18.66
2019-05-18T06:57:06.091Z,18.27
2019-05-18T07:02:11.785Z,18.68
2019-05-18T07:07:17.637Z,18.88
2019-05-18T07:12:23.532Z,19.00
2019-05-18T07:17:29.414Z,19.35
2019-05-18T07:22:35.522Z,19.28
2019-05-18T07:27:41.385Z,19.43
2019-05-18T07:32:47.113Z,19.59
2019-05-18T07:37:52.956Z,19.82
2019-05-18T07:42:58.756Z,19.81
2019-05-18T07:48:04.451Z,20.27
2019-05-18T07:53:10.306Z,20.17
2019-05-18T07:58:16.176Z,20.33
2019-05-18T08:03:23.093Z,20.41
2019-05-18T08:08:28.890Z,20.56
2019-05-18T08:13:34.716Z,20.61
2019-05-18T08:18:40.393Z,20.59
2019-05-18T08:23:46.051Z,21.02
2019-05-18T08:28:51.626Z,21.07
2019-05-18T08:33:57.248Z,21.11
2019-05-18T08:39:03.790Z,21.17
2019-05-18T08:44:09.438Z,21.63
2019-05-18T08:49:14.880Z,21.79
2019-05-18T08:54:20.345Z,21.63
2019-05-18T08:59:25.888Z,22.10
2019-05-18T09:04:31.392Z,22.17
2019-05-18T09:14:41.645Z,21.91
2019-05-18T09:19:47.443Z,22.27
2019-05-18T09:24:53.119Z,22.54
2019-05-18T09:29:58.640Z,22.76
2019-05-18T09:35:06.366Z,22.44
2019-05-18T09:40:12.448Z,22.85
2019-05-18T09:45:19.740Z,22.84
2019-05-18T09:50:25.472Z,23.17
2019-05-18T09:55:31.201Z,23.20
2019-05-18T10:00:39.100Z,22.78
2019-05-18T10:05:46.101Z,22.99
2019-05-18T10:10:51.739Z,23.32
2019-05-18T10:15:57.552Z,23.45
2019-05-18T10:21:03.439Z,23.86
2019-05-18T10:26:09.770Z,23.61
2019-05-18T10:31:15.338Z,23.80
2019-05-18T10:36:20.822Z,23.84
2019-05-18T10:41:26.416Z,24.18
2019-05-18T10:46:31.996Z,24.32
2019-05-18T10:51:37.537Z,24.38
2019-05-18T10:56:43.065Z,23.87
2019-05-18T11:01:49.065Z,24.48
2019-05-18T11:06:54.540Z,24.41
2019-05-18T11:12:00.043Z,24.37
2019-05-18T11:17:05.671Z,24.68
2019-05-18T11:22:11.253Z,24.35
2019-05-18T11:27:16.833Z,24.09
2019-05-18T11:32:22.293Z,24.53
2019-05-18T11:37:27.933Z,24.85
2019-05-18T11:42:33.550Z,25.21
2019-05-18T11:47:39.151Z,25.65
2019-05-18T11:52:44.846Z,25.74
2019-05-18T11:57:50.487Z,25.85
2019-05-18T12:02:56.167Z,25.47
2019-05-18T12:08:01.774Z,25.61
2019-05-18T12:13:07.460Z,25.88
2019-05-18T12:18:13.033Z,26.31
2019-05-18T12:23:18.510Z,26.37
2019-05-18T12:28:23.975Z,25.34
2019-05-18T12:33:30.565Z,25.54
2019-05-18T12:38:36.037Z,25.78
2019-05-18T12:43:41.764Z,25.79
2019-05-18T12:48:47.256Z,26.21
2019-05-18T12:53:52.709Z,25.19
2019-05-18T12:58:58.210Z,25.60
2019-05-18T13:04:04.968Z,25.93
2019-05-18T13:09:10.449Z,25.72
2019-05-18T13:14:16.036Z,26.00
2019-05-18T13:19:21.494Z,25.71
2019-05-18T13:24:27.016Z,25.99
2019-05-18T13:29:32.563Z,26.04
2019-05-18T13:34:38.090Z,26.25
2019-05-18T13:39:43.629Z,25.93
2019-05-18T13:44:49.071Z,26.17
2019-05-18T13:49:54.583Z,25.30
2019-05-18T13:55:04.445Z,25.53
2019-05-18T14:00:09.743Z,25.62
2019-05-18T14:05:15.634Z,25.89
2019-05-18T14:10:21.190Z,26.25
2019-05-18T14:15:26.786Z,26.75
2019-05-18T14:20:32.366Z,26.55
2019-05-18T14:25:37.830Z,26.40
2019-05-18T14:30:43.432Z,26.75
2019-05-18T14:35:51.032Z,26.93
2019-05-18T14:40:56.626Z,26.79
2019-05-18T14:46:02.321Z,26.61
2019-05-18T14:51:08.028Z,26.77
2019-05-18T14:56:13.548Z,26.44
2019-05-18T15:01:19.137Z,26.47
2019-05-18T15:06:24.830Z,26.52
2019-05-18T15:11:30.355Z,26.71
2019-05-18T15:16:35.994Z,26.42
2019-05-18T15:21:42.670Z,26.40
2019-05-18T15:26:48.674Z,26.16
2019-05-18T15:31:54.319Z,26.38
2019-05-18T15:36:59.945Z,26.86
2019-05-18T15:42:05.620Z,26.84
2019-05-18T15:47:11.693Z,27.97
2019-05-18T15:52:17.410Z,28.69
2019-05-18T15:57:23.101Z,29.36
